sensor_id;sensor_type;location;lat;lon;timestamp;pressure;altitude;pressure_sealevel;temperature;humidity
11952;BME280;6036;41.840;23.486;2022-09-20T00:00:35;90342.47;;;14.38;49.65
11952;BME280;6036;41.840;23.486;2022-09-20T00:03:00;90342.78;;;14.32;49.86
11952;BME280;6036;41.840;23.486;2022-09-20T00:05:26;90348.44;;;14.34;49.70
11952;BME280;6036;41.840;23.486;2022-09-20T00:07:51;90351.75;;;14.02;50.76
11952;BME280;6036;41.840;23.486;2022-09-20T00:10:17;90342.59;;;13.92;51.34
11952;BME280;6036;41.840;23.486;2022-09-20T00:12:43;90352.50;;;14.02;51.03
11952;BME280;6036;41.840;23.486;2022-09-20T00:15:08;90342.44;;;13.82;51.02
11952;BME280;6036;41.840;23.486;2022-09-20T00:17:34;90343.84;;;13.76;51.21
11952;BME280;6036;41.840;23.486;2022-09-20T00:19:59;90336.56;;;13.92;51.21
11952;BME280;6036;41.840;23.486;2022-09-20T00:22:25;90341.59;;;13.74;51.20
11952;BME280;6036;41.840;23.486;2022-09-20T00:24:51;90346.28;;;13.39;52.23
11952;BME280;6036;41.840;23.486;2022-09-20T00:27:17;90358.03;;;13.45;52.12
11952;BME280;6036;41.840;23.486;2022-09-20T00:29:42;90349.56;;;13.55;52.18
11952;BME280;6036;41.840;23.486;2022-09-20T00:32:07;90352.03;;;13.70;51.51
11952;BME280;6036;41.840;23.486;2022-09-20T00:34:33;90352.41;;;13.69;51.57
11952;BME280;6036;41.840;23.486;2022-09-20T00:37:17;90345.31;;;13.47;51.81
11952;BME280;6036;41.840;23.486;2022-09-20T00:39:42;90352.13;;;13.29;52.54
11952;BME280;6036;41.840;23.486;2022-09-20T00:42:12;90345.38;;;13.28;53.04
11952;BME280;6036;41.840;23.486;2022-09-20T00:44:42;90352.97;;;13.33;53.10
11952;BME280;6036;41.840;23.486;2022-09-20T00:47:14;90351.44;;;13.32;52.82
11952;BME280;6036;41.840;23.486;2022-09-20T00:49:41;90351.31;;;13.47;52.56
11952;BME280;6036;41.840;23.486;2022-09-20T00:52:07;90358.75;;;13.42;52.65
11952;BME280;6036;41.840;23.486;2022-09-20T00:54:33;90348.47;;;13.11;53.54
11952;BME280;6036;41.840;23.486;2022-09-20T00:56:58;90346.28;;;12.93;54.47
11952;BME280;6036;41.840;23.486;2022-09-20T00:59:26;90347.75;;;13.14;53.61
11952;BME280;6036;41.840;23.486;2022-09-20T01:02:16;90343.44;;;13.25;53.27
11952;BME280;6036;41.840;23.486;2022-09-20T01:04:44;90348.69;;;13.25;53.05
11952;BME280;6036;41.840;23.486;2022-09-20T01:07:13;90349.09;;;13.27;53.55
11952;BME280;6036;41.840;23.486;2022-09-20T01:09:39;90345.53;;;13.38;53.07
11952;BME280;6036;41.840;23.486;2022-09-20T01:12:11;90355.06;;;13.24;53.16
11952;BME280;6036;41.840;23.486;2022-09-20T01:14:38;90343.03;;;13.23;53.41
11952;BME280;6036;41.840;23.486;2022-09-20T01:17:05;90340.94;;;13.32;53.04
11952;BME280;6036;41.840;23.486;2022-09-20T01:22:33;90332.53;;;13.23;53.24
11952;BME280;6036;41.840;23.486;2022-09-20T01:25:17;90330.72;;;12.85;54.58
11952;BME280;6036;41.840;23.486;2022-09-20T01:27:48;90322.84;;;12.85;54.06
11952;BME280;6036;41.840;23.486;2022-09-20T01:30:19;90326.66;;;12.87;54.63
11952;BME280;6036;41.840;23.486;2022-09-20T01:33:08;90324.88;;;12.72;54.71
11952;BME280;6036;41.840;23.486;2022-09-20T01:35:35;90332.53;;;12.81;54.44
11952;BME280;6036;41.840;23.486;2022-09-20T01:41:11;90328.91;;;12.47;55.51
11952;BME280;6036;41.840;23.486;2022-09-20T01:43:55;90332.81;;;12.76;54.92
11952;BME280;6036;41.840;23.486;2022-09-20T01:46:42;90330.00;;;12.65;55.47
11952;BME280;6036;41.840;23.486;2022-09-20T02:11:13;90324.16;;;12.33;56.16
11952;BME280;6036;41.840;23.486;2022-09-20T02:13:50;90320.78;;;12.14;56.45
11952;BME280;6036;41.840;23.486;2022-09-20T02:16:31;90323.38;;;12.33;56.24
11952;BME280;6036;41.840;23.486;2022-09-20T02:19:31;90329.03;;;12.54;55.66
11952;BME280;6036;41.840;23.486;2022-09-20T02:22:21;90325.31;;;12.36;55.91
11952;BME280;6036;41.840;23.486;2022-09-20T02:31:12;90327.44;;;12.50;55.62
11952;BME280;6036;41.840;23.486;2022-09-20T02:39:06;90326.00;;;12.52;52.34
11952;BME280;6036;41.840;23.486;2022-09-20T02:44:27;90348.09;;;12.32;54.57
11952;BME280;6036;41.840;23.486;2022-09-20T02:55:31;90331.69;;;11.65;50.89
11952;BME280;6036;41.840;23.486;2022-09-20T02:58:37;90336.47;;;11.60;49.22
11952;BME280;6036;41.840;23.486;2022-09-20T03:04:20;90340.25;;;11.62;47.08
11952;BME280;6036;41.840;23.486;2022-09-20T03:07:04;90339.72;;;11.88;47.09
11952;BME280;6036;41.840;23.486;2022-09-20T03:12:19;90351.00;;;12.65;45.17
11952;BME280;6036;41.840;23.486;2022-09-20T03:18:10;90331.59;;;13.12;42.70
11952;BME280;6036;41.840;23.486;2022-09-20T03:26:34;90336.66;;;13.01;38.18
11952;BME280;6036;41.840;23.486;2022-09-20T03:30:07;90338.41;;;13.16;37.15
11952;BME280;6036;41.840;23.486;2022-09-20T03:32:42;90347.06;;;13.39;36.96
11952;BME280;6036;41.840;23.486;2022-09-20T03:35:41;90360.56;;;13.38;40.74
11952;BME280;6036;41.840;23.486;2022-09-20T03:46:17;90367.72;;;12.76;49.00
11952;BME280;6036;41.840;23.486;2022-09-20T03:49:37;90360.53;;;12.54;49.62
11952;BME280;6036;41.840;23.486;2022-09-20T03:52:04;90352.59;;;12.31;41.33
11952;BME280;6036;41.840;23.486;2022-09-20T04:00:38;90333.75;;;12.07;40.74
11952;BME280;6036;41.840;23.486;2022-09-20T04:03:19;90342.72;;;12.06;40.71
11952;BME280;6036;41.840;23.486;2022-09-20T04:06:14;90346.19;;;11.75;41.07
11952;BME280;6036;41.840;23.486;2022-09-20T04:14:16;90352.88;;;11.41;42.12
11952;BME280;6036;41.840;23.486;2022-09-20T04:19:50;90348.66;;;11.37;41.78
11952;BME280;6036;41.840;23.486;2022-09-20T04:22:19;90348.28;;;11.38;41.71
11952;BME280;6036;41.840;23.486;2022-09-20T04:24:54;90345.69;;;11.38;41.83
11952;BME280;6036;41.840;23.486;2022-09-20T04:27:31;90359.63;;;11.73;41.11
11952;BME280;6036;41.840;23.486;2022-09-20T04:30:22;90366.84;;;11.96;40.42
11952;BME280;6036;41.840;23.486;2022-09-20T04:33:10;90377.53;;;12.41;39.50
11952;BME280;6036;41.840;23.486;2022-09-20T04:35:44;90373.53;;;12.66;38.88
11952;BME280;6036;41.840;23.486;2022-09-20T04:38:30;90374.75;;;12.72;38.60
11952;BME280;6036;41.840;23.486;2022-09-20T04:47:35;90373.28;;;13.13;41.55
11952;BME280;6036;41.840;23.486;2022-09-20T05:07:13;90390.44;;;12.50;41.70
11952;BME280;6036;41.840;23.486;2022-09-20T05:12:48;90396.34;;;13.46;40.80
11952;BME280;6036;41.840;23.486;2022-09-20T05:15:36;90385.00;;;13.19;40.81
11952;BME280;6036;41.840;23.486;2022-09-20T05:18:39;90379.16;;;13.07;41.12
11952;BME280;6036;41.840;23.486;2022-09-20T05:27:09;90372.16;;;13.59;39.30
11952;BME280;6036;41.840;23.486;2022-09-20T05:32:53;90361.44;;;13.23;40.30
11952;BME280;6036;41.840;23.486;2022-09-20T05:35:32;90365.34;;;13.10;40.62
11952;BME280;6036;41.840;23.486;2022-09-20T05:43:34;90383.56;;;12.07;43.95
11952;BME280;6036;41.840;23.486;2022-09-20T06:00:14;90422.03;;;13.33;42.79
11952;BME280;6036;41.840;23.486;2022-09-20T06:16:55;90417.38;;;15.80;37.29
11952;BME280;6036;41.840;23.486;2022-09-20T06:19:35;90416.03;;;14.86;39.10
11952;BME280;6036;41.840;23.486;2022-09-20T06:22:15;90419.19;;;14.99;38.51
11952;BME280;6036;41.840;23.486;2022-09-20T06:24:55;90420.63;;;14.93;38.88
11952;BME280;6036;41.840;23.486;2022-09-20T06:27:28;90414.63;;;15.66;37.66
11952;BME280;6036;41.840;23.486;2022-09-20T06:29:58;90414.28;;;16.22;36.72
11952;BME280;6036;41.840;23.486;2022-09-20T06:32:25;90415.59;;;17.18;34.96
11952;BME280;6036;41.840;23.486;2022-09-20T06:34:52;90420.19;;;17.42;34.43
11952;BME280;6036;41.840;23.486;2022-09-20T06:40:39;90416.16;;;18.04;33.98
11952;BME280;6036;41.840;23.486;2022-09-20T06:43:25;90408.50;;;18.70;32.84
11952;BME280;6036;41.840;23.486;2022-09-20T06:45:51;90411.09;;;18.95;32.22
11952;BME280;6036;41.840;23.486;2022-09-20T06:48:17;90398.16;;;19.11;31.55
11952;BME280;6036;41.840;23.486;2022-09-20T06:50:43;90393.63;;;19.84;30.57
11952;BME280;6036;41.840;23.486;2022-09-20T06:53:14;90402.75;;;20.75;29.76
11952;BME280;6036;41.840;23.486;2022-09-20T06:55:41;90410.69;;;21.16;28.90
11952;BME280;6036;41.840;23.486;2022-09-20T06:58:07;90410.13;;;21.92;27.20
11952;BME280;6036;41.840;23.486;2022-09-20T07:00:34;90411.50;;;22.96;26.20
11952;BME280;6036;41.840;23.486;2022-09-20T07:02:59;90413.13;;;24.08;25.21
11952;BME280;6036;41.840;23.486;2022-09-20T07:05:24;90415.47;;;24.22;25.18
11952;BME280;6036;41.840;23.486;2022-09-20T07:07:54;90417.19;;;25.54;23.36
11952;BME280;6036;41.840;23.486;2022-09-20T07:10:20;90418.28;;;26.36;22.67
11952;BME280;6036;41.840;23.486;2022-09-20T07:12:45;90419.44;;;26.60;22.16
11952;BME280;6036;41.840;23.486;2022-09-20T07:15:11;90423.41;;;27.93;21.07
11952;BME280;6036;41.840;23.486;2022-09-20T07:17:36;90416.03;;;28.76;20.07
11952;BME280;6036;41.840;23.486;2022-09-20T07:20:01;90412.28;;;29.41;19.52
11952;BME280;6036;41.840;23.486;2022-09-20T07:22:27;90406.97;;;30.10;18.85
11952;BME280;6036;41.840;23.486;2022-09-20T07:24:52;90411.66;;;30.84;18.19
11952;BME280;6036;41.840;23.486;2022-09-20T07:27:17;90415.94;;;31.23;17.81
11952;BME280;6036;41.840;23.486;2022-09-20T07:29:43;90410.44;;;31.65;17.01
11952;BME280;6036;41.840;23.486;2022-09-20T07:32:10;90414.56;;;31.90;17.32
11952;BME280;6036;41.840;23.486;2022-09-20T07:34:35;90419.09;;;32.37;16.52
11952;BME280;6036;41.840;23.486;2022-09-20T07:37:00;90407.63;;;32.91;16.56
11952;BME280;6036;41.840;23.486;2022-09-20T07:39:26;90415.13;;;32.82;16.46
11952;BME280;6036;41.840;23.486;2022-09-20T07:41:51;90399.78;;;32.93;16.24
11952;BME280;6036;41.840;23.486;2022-09-20T07:44:17;90413.22;;;33.57;15.93
11952;BME280;6036;41.840;23.486;2022-09-20T07:46:57;90409.34;;;34.35;15.40
11952;BME280;6036;41.840;23.486;2022-09-20T07:49:23;90412.59;;;34.39;15.52
11952;BME280;6036;41.840;23.486;2022-09-20T07:51:51;90411.66;;;33.96;15.50
11952;BME280;6036;41.840;23.486;2022-09-20T07:54:17;90412.69;;;34.82;14.66
11952;BME280;6036;41.840;23.486;2022-09-20T07:56:44;90417.56;;;35.51;14.21
11952;BME280;6036;41.840;23.486;2022-09-20T07:59:09;90410.09;;;34.98;14.79
11952;BME280;6036;41.840;23.486;2022-09-20T08:01:36;90405.84;;;34.92;14.49
11952;BME280;6036;41.840;23.486;2022-09-20T08:04:03;90404.63;;;34.05;15.14
11952;BME280;6036;41.840;23.486;2022-09-20T08:06:29;90399.47;;;34.38;14.58
11952;BME280;6036;41.840;23.486;2022-09-20T08:08:55;90399.28;;;34.41;15.48
11952;BME280;6036;41.840;23.486;2022-09-20T08:11:22;90398.50;;;35.51;14.37
11952;BME280;6036;41.840;23.486;2022-09-20T08:13:51;90397.50;;;36.08;14.17
11952;BME280;6036;41.840;23.486;2022-09-20T08:16:17;90409.25;;;36.52;13.65
11952;BME280;6036;41.840;23.486;2022-09-20T08:18:47;90406.78;;;36.49;13.47
11952;BME280;6036;41.840;23.486;2022-09-20T08:21:13;90412.78;;;35.88;14.29
11952;BME280;6036;41.840;23.486;2022-09-20T08:23:41;90405.03;;;37.01;12.69
11952;BME280;6036;41.840;23.486;2022-09-20T08:26:09;90403.97;;;36.16;13.66
11952;BME280;6036;41.840;23.486;2022-09-20T08:28:39;90402.25;;;37.24;12.61
11952;BME280;6036;41.840;23.486;2022-09-20T08:31:11;90400.97;;;36.08;13.29
11952;BME280;6036;41.840;23.486;2022-09-20T08:33:37;90400.72;;;36.01;13.22
11952;BME280;6036;41.840;23.486;2022-09-20T08:36:10;90396.59;;;36.88;12.78
11952;BME280;6036;41.840;23.486;2022-09-20T08:38:36;90385.28;;;35.22;13.54
11952;BME280;6036;41.840;23.486;2022-09-20T08:41:29;90384.28;;;32.79;14.98
11952;BME280;6036;41.840;23.486;2022-09-20T08:44:12;90386.97;;;32.00;16.27
11952;BME280;6036;41.840;23.486;2022-09-20T08:46:44;90386.50;;;31.49;15.92
11952;BME280;6036;41.840;23.486;2022-09-20T08:49:18;90381.19;;;30.00;17.57
11952;BME280;6036;41.840;23.486;2022-09-20T08:51:46;90370.03;;;29.20;18.42
11952;BME280;6036;41.840;23.486;2022-09-20T08:54:15;90382.34;;;27.92;19.52
11952;BME280;6036;41.840;23.486;2022-09-20T08:56:41;90382.81;;;27.47;20.78
11952;BME280;6036;41.840;23.486;2022-09-20T08:59:15;90374.47;;;27.33;20.79
11952;BME280;6036;41.840;23.486;2022-09-20T09:01:41;90375.03;;;26.21;22.24
11952;BME280;6036;41.840;23.486;2022-09-20T09:04:14;90370.47;;;25.80;22.29
11952;BME280;6036;41.840;23.486;2022-09-20T09:06:40;90368.63;;;25.23;22.60
11952;BME280;6036;41.840;23.486;2022-09-20T09:09:07;90372.28;;;24.56;22.75
11952;BME280;6036;41.840;23.486;2022-09-20T09:11:39;90368.25;;;24.48;23.24
11952;BME280;6036;41.840;23.486;2022-09-20T09:14:11;90362.66;;;24.10;23.92
11952;BME280;6036;41.840;23.486;2022-09-20T09:16:56;90360.75;;;24.43;23.72
11952;BME280;6036;41.840;23.486;2022-09-20T09:19:29;90361.94;;;25.03;23.74
11952;BME280;6036;41.840;23.486;2022-09-20T09:21:59;90349.31;;;25.16;23.24
11952;BME280;6036;41.840;23.486;2022-09-20T09:24:27;90336.47;;;24.66;23.84
11952;BME280;6036;41.840;23.486;2022-09-20T09:27:12;90346.94;;;25.05;23.39
11952;BME280;6036;41.840;23.486;2022-09-20T09:29:56;90340.97;;;25.14;23.90
11952;BME280;6036;41.840;23.486;2022-09-20T09:32:27;90349.22;;;24.46;24.09
11952;BME280;6036;41.840;23.486;2022-09-20T09:34:53;90344.41;;;24.05;23.62
11952;BME280;6036;41.840;23.486;2022-09-20T09:37:30;90336.47;;;23.69;24.61
11952;BME280;6036;41.840;23.486;2022-09-20T09:40:14;90339.03;;;23.73;25.40
11952;BME280;6036;41.840;23.486;2022-09-20T09:42:57;90342.38;;;23.21;25.86
11952;BME280;6036;41.840;23.486;2022-09-20T09:45:32;90336.56;;;23.26;26.46
11952;BME280;6036;41.840;23.486;2022-09-20T09:48:22;90341.19;;;23.62;24.89
11952;BME280;6036;41.840;23.486;2022-09-20T09:50:48;90338.84;;;23.08;24.98
11952;BME280;6036;41.840;23.486;2022-09-20T09:53:21;90331.59;;;22.89;25.76
11952;BME280;6036;41.840;23.486;2022-09-20T09:58:28;90332.75;;;23.27;25.35
11952;BME280;6036;41.840;23.486;2022-09-20T10:00:57;90332.41;;;23.25;25.62
11952;BME280;6036;41.840;23.486;2022-09-20T10:03:52;90332.53;;;22.79;26.06
11952;BME280;6036;41.840;23.486;2022-09-20T10:06:53;90338.72;;;22.30;26.44
11952;BME280;6036;41.840;23.486;2022-09-20T10:12:28;90336.63;;;22.41;26.08
11952;BME280;6036;41.840;23.486;2022-09-20T10:30:46;90328.41;;;22.09;25.57
11952;BME280;6036;41.840;23.486;2022-09-20T10:33:37;90328.00;;;21.83;26.91
11952;BME280;6036;41.840;23.486;2022-09-20T10:36:32;90330.38;;;21.78;27.11
11952;BME280;6036;41.840;23.486;2022-09-20T10:39:27;90332.56;;;21.86;26.68
11952;BME280;6036;41.840;23.486;2022-09-20T10:47:18;90331.97;;;21.18;25.29
11952;BME280;6036;41.840;23.486;2022-09-20T10:58:38;90310.53;;;21.29;25.59
11952;BME280;6036;41.840;23.486;2022-09-20T11:01:30;90305.44;;;20.81;24.66
11952;BME280;6036;41.840;23.486;2022-09-20T11:09:26;90303.34;;;20.96;27.61
11952;BME280;6036;41.840;23.486;2022-09-20T11:12:02;90303.50;;;20.82;26.07
11952;BME280;6036;41.840;23.486;2022-09-20T11:14:36;90315.38;;;21.07;25.24
11952;BME280;6036;41.840;23.486;2022-09-20T11:17:09;90299.34;;;20.81;24.88
11952;BME280;6036;41.840;23.486;2022-09-20T11:19:47;90301.06;;;20.64;26.22
11952;BME280;6036;41.840;23.486;2022-09-20T11:22:21;90291.50;;;20.33;24.89
11952;BME280;6036;41.840;23.486;2022-09-20T11:25:16;90289.22;;;19.94;27.86
11952;BME280;6036;41.840;23.486;2022-09-20T11:27:46;90292.06;;;20.13;26.51
11952;BME280;6036;41.840;23.486;2022-09-20T11:30:22;90294.53;;;19.90;26.19
11952;BME280;6036;41.840;23.486;2022-09-20T11:32:57;90287.25;;;19.98;26.78
11952;BME280;6036;41.840;23.486;2022-09-20T11:35:37;90294.84;;;19.52;25.84
11952;BME280;6036;41.840;23.486;2022-09-20T11:38:11;90282.69;;;19.58;27.71
11952;BME280;6036;41.840;23.486;2022-09-20T11:41:41;90279.22;;;19.61;27.28
11952;BME280;6036;41.840;23.486;2022-09-20T11:44:04;90278.44;;;19.64;26.45
11952;BME280;6036;41.840;23.486;2022-09-20T11:46:39;90277.63;;;19.70;25.87
11952;BME280;6036;41.840;23.486;2022-09-20T11:49:23;90273.50;;;19.66;25.54
11952;BME280;6036;41.840;23.486;2022-09-20T11:52:18;90272.50;;;19.53;25.33
11952;BME280;6036;41.840;23.486;2022-09-20T11:57:19;90279.47;;;19.25;25.83
11952;BME280;6036;41.840;23.486;2022-09-20T11:59:54;90274.53;;;19.27;26.14
11952;BME280;6036;41.840;23.486;2022-09-20T12:05:06;90278.81;;;19.07;26.93
11952;BME280;6036;41.840;23.486;2022-09-20T12:07:52;90275.34;;;19.14;26.06
11952;BME280;6036;41.840;23.486;2022-09-20T12:10:31;90271.16;;;19.16;25.59
11952;BME280;6036;41.840;23.486;2022-09-20T12:13:03;90284.47;;;19.09;24.59
11952;BME280;6036;41.840;23.486;2022-09-20T12:15:39;90271.97;;;19.10;26.25
11952;BME280;6036;41.840;23.486;2022-09-20T12:26:07;90273.34;;;19.35;24.70
11952;BME280;6036;41.840;23.486;2022-09-20T12:28:42;90272.56;;;19.38;25.19
11952;BME280;6036;41.840;23.486;2022-09-20T12:36:44;90263.91;;;19.27;26.26
11952;BME280;6036;41.840;23.486;2022-09-20T12:42:22;90266.06;;;19.46;26.53
11952;BME280;6036;41.840;23.486;2022-09-20T12:52:47;90269.78;;;19.60;24.34
11952;BME280;6036;41.840;23.486;2022-09-20T13:00:49;90255.53;;;19.32;25.26
11952;BME280;6036;41.840;23.486;2022-09-20T13:05:47;90260.66;;;19.02;26.85
11952;BME280;6036;41.840;23.486;2022-09-20T13:08:26;90252.84;;;18.77;26.10
11952;BME280;6036;41.840;23.486;2022-09-20T13:16:21;90250.72;;;18.48;24.87
11952;BME280;6036;41.840;23.486;2022-09-20T13:18:58;90251.44;;;18.55;23.80
11952;BME280;6036;41.840;23.486;2022-09-20T13:21:25;90250.59;;;18.72;23.03
11952;BME280;6036;41.840;23.486;2022-09-20T13:23:52;90251.16;;;19.08;23.44
11952;BME280;6036;41.840;23.486;2022-09-20T13:26:33;90254.38;;;18.75;24.57
11952;BME280;6036;41.840;23.486;2022-09-20T13:29:01;90260.44;;;18.72;26.02
11952;BME280;6036;41.840;23.486;2022-09-20T13:31:30;90256.63;;;18.76;26.35
11952;BME280;6036;41.840;23.486;2022-09-20T13:34:20;90255.25;;;18.51;27.80
11952;BME280;6036;41.840;23.486;2022-09-20T13:36:47;90259.44;;;18.34;27.25
11952;BME280;6036;41.840;23.486;2022-09-20T13:39:27;90252.59;;;18.51;27.45
11952;BME280;6036;41.840;23.486;2022-09-20T13:41:58;90262.84;;;18.35;27.55
11952;BME280;6036;41.840;23.486;2022-09-20T13:44:26;90247.72;;;18.28;26.34
11952;BME280;6036;41.840;23.486;2022-09-20T13:46:53;90248.78;;;18.52;26.20
11952;BME280;6036;41.840;23.486;2022-09-20T13:49:19;90249.63;;;18.24;26.45
11952;BME280;6036;41.840;23.486;2022-09-20T13:51:49;90251.25;;;17.86;27.15
11952;BME280;6036;41.840;23.486;2022-09-20T13:54:20;90245.91;;;18.00;27.10
11952;BME280;6036;41.840;23.486;2022-09-20T13:56:46;90255.78;;;17.86;27.18
11952;BME280;6036;41.840;23.486;2022-09-20T13:59:13;90250.09;;;17.91;27.79
11952;BME280;6036;41.840;23.486;2022-09-20T14:01:53;90256.06;;;18.27;27.88
11952;BME280;6036;41.840;23.486;2022-09-20T14:04:22;90250.38;;;18.32;28.04
11952;BME280;6036;41.840;23.486;2022-09-20T14:06:49;90251.13;;;18.29;27.89
11952;BME280;6036;41.840;23.486;2022-09-20T14:09:32;90247.41;;;18.12;28.56
11952;BME280;6036;41.840;23.486;2022-09-20T14:11:58;90244.03;;;18.01;29.34
11952;BME280;6036;41.840;23.486;2022-09-20T14:14:25;90252.72;;;18.12;29.96
11952;BME280;6036;41.840;23.486;2022-09-20T14:16:52;90258.41;;;17.93;29.40
11952;BME280;6036;41.840;23.486;2022-09-20T14:19:20;90251.09;;;18.36;28.52
11952;BME280;6036;41.840;23.486;2022-09-20T14:21:47;90247.03;;;18.06;29.17
11952;BME280;6036;41.840;23.486;2022-09-20T14:26:40;90256.88;;;18.06;28.90
11952;BME280;6036;41.840;23.486;2022-09-20T14:31:58;90250.06;;;18.05;28.90
11952;BME280;6036;41.840;23.486;2022-09-20T14:34:24;90264.84;;;17.88;29.54
11952;BME280;6036;41.840;23.486;2022-09-20T14:36:50;90276.56;;;17.98;30.16
11952;BME280;6036;41.840;23.486;2022-09-20T14:39:23;90273.53;;;18.06;30.90
11952;BME280;6036;41.840;23.486;2022-09-20T14:41:49;90268.19;;;18.20;30.24
11952;BME280;6036;41.840;23.486;2022-09-20T14:44:31;90278.13;;;17.57;30.86
11952;BME280;6036;41.840;23.486;2022-09-20T14:46:58;90278.13;;;17.60;30.66
11952;BME280;6036;41.840;23.486;2022-09-20T14:51:49;90284.13;;;17.46;31.16
11952;BME280;6036;41.840;23.486;2022-09-20T14:54:27;90274.31;;;17.82;30.85
11952;BME280;6036;41.840;23.486;2022-09-20T14:56:56;90280.72;;;17.88;30.12
11952;BME280;6036;41.840;23.486;2022-09-20T14:59:36;90281.09;;;17.97;29.77
11952;BME280;6036;41.840;23.486;2022-09-20T15:02:14;90275.84;;;17.69;29.54
11952;BME280;6036;41.840;23.486;2022-09-20T15:04:41;90286.78;;;17.50;30.02
11952;BME280;6036;41.840;23.486;2022-09-20T15:07:15;90278.44;;;17.41;30.17
11952;BME280;6036;41.840;23.486;2022-09-20T15:09:40;90297.75;;;17.73;30.29
11952;BME280;6036;41.840;23.486;2022-09-20T15:12:17;90288.66;;;17.39;31.71
11952;BME280;6036;41.840;23.486;2022-09-20T15:14:44;90286.41;;;17.66;31.35
11952;BME280;6036;41.840;23.486;2022-09-20T15:17:14;90293.19;;;17.49;31.88
11952;BME280;6036;41.840;23.486;2022-09-20T15:19:40;90293.22;;;17.56;31.64
11952;BME280;6036;41.840;23.486;2022-09-20T15:22:08;90289.44;;;17.61;31.52
11952;BME280;6036;41.840;23.486;2022-09-20T15:24:34;90299.25;;;17.78;31.50
11952;BME280;6036;41.840;23.486;2022-09-20T15:27:00;90303.78;;;17.88;31.45
11952;BME280;6036;41.840;23.486;2022-09-20T15:29:25;90310.25;;;17.55;32.07
11952;BME280;6036;41.840;23.486;2022-09-20T15:31:51;90302.25;;;17.41;32.48
11952;BME280;6036;41.840;23.486;2022-09-20T15:34:16;90307.50;;;17.09;32.74
11952;BME280;6036;41.840;23.486;2022-09-20T15:36:43;90307.47;;;16.88;33.08
11952;BME280;6036;41.840;23.486;2022-09-20T15:39:09;90312.03;;;16.98;32.74
11952;BME280;6036;41.840;23.486;2022-09-20T15:41:35;90316.56;;;17.01;32.90
11952;BME280;6036;41.840;23.486;2022-09-20T15:44:04;90311.97;;;16.73;33.62
11952;BME280;6036;41.840;23.486;2022-09-20T15:46:31;90313.41;;;16.53;34.18
11952;BME280;6036;41.840;23.486;2022-09-20T15:48:59;90315.97;;;16.39;34.26
11952;BME280;6036;41.840;23.486;2022-09-20T15:51:25;90319.44;;;16.57;34.29
11952;BME280;6036;41.840;23.486;2022-09-20T15:53:56;90330.81;;;16.68;33.88
11952;BME280;6036;41.840;23.486;2022-09-20T15:56:27;90321.03;;;16.04;35.37
11952;BME280;6036;41.840;23.486;2022-09-20T15:58:59;90322.53;;;16.05;35.36
11952;BME280;6036;41.840;23.486;2022-09-20T16:01:39;90327.16;;;16.22;35.01
11952;BME280;6036;41.840;23.486;2022-09-20T16:06:34;90328.69;;;16.23;35.10
11952;BME280;6036;41.840;23.486;2022-09-20T16:09:00;90343.00;;;16.22;34.94
11952;BME280;6036;41.840;23.486;2022-09-20T16:11:25;90344.91;;;16.25;34.91
11952;BME280;6036;41.840;23.486;2022-09-20T16:13:56;90338.53;;;16.26;35.14
11952;BME280;6036;41.840;23.486;2022-09-20T16:16:21;90345.03;;;16.46;34.65
11952;BME280;6036;41.840;23.486;2022-09-20T16:18:47;90350.31;;;16.46;34.63
11952;BME280;6036;41.840;23.486;2022-09-20T16:21:31;90345.72;;;16.29;34.86
11952;BME280;6036;41.840;23.486;2022-09-20T16:23:57;90345.25;;;16.16;34.84
11952;BME280;6036;41.840;23.486;2022-09-20T16:26:27;90356.03;;;15.94;35.60
11952;BME280;6036;41.840;23.486;2022-09-20T16:28:53;90356.50;;;15.55;36.25
11952;BME280;6036;41.840;23.486;2022-09-20T16:34:20;90361.91;;;15.70;36.42
11952;BME280;6036;41.840;23.486;2022-09-20T16:36:51;90357.25;;;15.52;36.34
11952;BME280;6036;41.840;23.486;2022-09-20T16:39:20;90364.50;;;15.26;37.10
11952;BME280;6036;41.840;23.486;2022-09-20T16:41:53;90364.78;;;15.17;37.11
11952;BME280;6036;41.840;23.486;2022-09-20T16:44:18;90377.44;;;15.41;36.95
11952;BME280;6036;41.840;23.486;2022-09-20T16:46:44;90365.63;;;14.88;37.78
11952;BME280;6036;41.840;23.486;2022-09-20T16:49:10;90361.19;;;15.32;37.03
11952;BME280;6036;41.840;23.486;2022-09-20T16:51:39;90370.44;;;15.16;37.32
11952;BME280;6036;41.840;23.486;2022-09-20T16:54:08;90372.16;;;15.01;37.69
11952;BME280;6036;41.840;23.486;2022-09-20T16:56:38;90372.63;;;15.10;37.30
11952;BME280;6036;41.840;23.486;2022-09-20T16:59:04;90374.78;;;15.01;37.47
11952;BME280;6036;41.840;23.486;2022-09-20T17:01:32;90380.88;;;14.72;37.76
11952;BME280;6036;41.840;23.486;2022-09-20T17:03:58;90385.88;;;14.84;38.08
11952;BME280;6036;41.840;23.486;2022-09-20T17:06:25;90388.53;;;14.54;38.43
11952;BME280;6036;41.840;23.486;2022-09-20T17:08:55;90394.84;;;14.46;38.79
11952;BME280;6036;41.840;23.486;2022-09-20T17:11:24;90394.56;;;14.55;38.42
11952;BME280;6036;41.840;23.486;2022-09-20T17:13:52;90403.06;;;14.41;38.76
11952;BME280;6036;41.840;23.486;2022-09-20T17:16:23;90400.75;;;14.36;38.71
11952;BME280;6036;41.840;23.486;2022-09-20T17:19:00;90403.84;;;14.42;38.38
11952;BME280;6036;41.840;23.486;2022-09-20T17:21:28;90398.28;;;14.24;38.77
11952;BME280;6036;41.840;23.486;2022-09-20T17:23:56;90410.50;;;14.09;39.25
11952;BME280;6036;41.840;23.486;2022-09-20T17:26:24;90403.09;;;14.18;38.94
11952;BME280;6036;41.840;23.486;2022-09-20T17:28:52;90408.25;;;14.34;38.26
11952;BME280;6036;41.840;23.486;2022-09-20T17:31:20;90417.31;;;14.37;38.16
11952;BME280;6036;41.840;23.486;2022-09-20T17:33:47;90417.84;;;14.49;38.05
11952;BME280;6036;41.840;23.486;2022-09-20T17:36:16;90409.28;;;14.89;37.19
11952;BME280;6036;41.840;23.486;2022-09-20T17:38:43;90420.88;;;14.51;37.84
11952;BME280;6036;41.840;23.486;2022-09-20T17:41:16;90411.47;;;14.24;38.40
11952;BME280;6036;41.840;23.486;2022-09-20T17:43:42;90422.84;;;14.58;37.78
11952;BME280;6036;41.840;23.486;2022-09-20T17:46:12;90414.66;;;14.37;37.77